Flight Track Log - Related Links

Times and Time Zones

All times are in EDT time to prevent confusion due to time zone crossing. See the SWA2436 flight status page for this flight to view local times or setup timezone preferences in your user account.

Time Position Orientation Groundspeed Altitude Reporting Facility
EDT Latitude Longitude Course Direction KTS km/h feet Rate Location/Type
Wed 23:55:52 29.9761 -90.2564 196° South 133 246 1.300  Level Houston Center
Wed 23:56:24 29.9564 -90.2628 196° South 169 312 2.300 2.581 Climbing Houston Center
Wed 23:57:25 29.9478 -90.3242 261° West 230 426 5.300 3.124 Climbing Houston Center
Wed 23:58:25 29.9442 -90.4056 267° West 243 451 8.600 3.074 Climbing Houston Center
Wed 23:59:26 29.9389 -90.5022 266° West 286 529 11.500 2.902 Climbing Houston Center
Thu 00:00:27 29.9300 -90.6181 265° West 347 642 14.500 3.000 Climbing Houston Center
Thu 00:01:28 29.9228 -90.7411 266° West 375 695 17.600 3.098 Climbing Houston Center
Thu 00:02:29 29.9072 -90.8700 262° West 398 737 20.800 2.852 Climbing Houston Center
Thu 00:03:30 29.8547 -90.9908 243° Southwest 421 779 23.400 2.361 Climbing Houston Center
Thu 00:04:31 29.8042 -91.1153 245° Southwest 427 790 25.600 3.273 Climbing Houston Center
Thu 00:05:31 29.7414 -91.2672 245° Southwest 437 810 30.000 3.868 Climbing Houston Center
Thu 00:06:32 29.6950 -91.3769 244° Southwest 394 729 33.400 2.066 Climbing Houston Center
Thu 00:07:33 29.6525 -91.4853 246° West 376 697 34.200 1.574 Climbing Houston Center
Thu 00:08:34 29.6092 -91.5894 244° Southwest 367 679 36.600 2.182 Climbing Houston Center
Thu 00:09:34 29.5667 -91.6894 244° Southwest 354 655 38.600 1.686 Climbing Houston Center
Thu 00:10:35 29.5231 -91.7922 244° Southwest 345 639 40.000 689 Climbing Houston Center
Thu 00:11:36 29.4836 -91.8892 245° Southwest 340 629 40.000  Level Houston Center
Thu 00:12:36 29.4436 -91.9853 244° Southwest 336 623 40.000  Level Houston Center
Thu 00:13:37 29.4039 -92.0806 244° Southwest 331 613 40.000  Level Houston Center
Thu 00:14:38 29.3642 -92.1775 245° Southwest 335 621 40.000  Level Houston Center
Thu 00:15:39 29.3242 -92.2725 244° Southwest 331 613 40.000  Level Houston Center
Thu 00:16:39 29.2842 -92.3681 244° Southwest 332 615 40.000  Level Houston Center
Thu 00:17:40 29.2453 -92.4650 245° Southwest 333 616 40.000  Level Houston Center
Thu 00:18:41 29.2444 -92.5722 270° West 340 629 40.000  Level Houston Center
Thu 00:19:41 29.2472 -92.6797 272° West 340 629 40.000  Level Houston Center
Thu 00:20:42 29.2486 -92.7864 271° West 336 623 40.000  Level Houston Center
Thu 00:21:43 29.2500 -92.8928 271° West 333 616 40.000 -446 Level Houston Center
Thu 00:22:43 29.2525 -92.9992 272° West 334 618 39.100 -893 Descending Houston Center
Thu 00:23:44 29.2539 -93.1056 271° West 334 618 38.200 -893 Descending Houston Center
Thu 00:24:44 29.2556 -93.2150 271° West 340 629 37.300 -2.380 Descending Houston Center
Thu 00:25:45 29.2575 -93.3231 271° West 341 631 33.400 -4.082 Descending Houston Center
Thu 00:26:46 29.2583 -93.4436 270° West 372 689 29.000 -3.917 Descending Houston Center
Thu 00:27:46 29.2603 -93.5711 271° West 395 732 25.500 -2.231 Descending Houston Center
Thu 00:28:47 29.2619 -93.7097 271° West 428 793 24.500 -992 Descending Houston Center
Thu 00:29:47 29.2628 -93.8444 270° West 425 787 23.500 -1.041 Descending Houston Center
Thu 00:30:48 29.2644 -93.9869 271° West 420 777 22.400 -2.040 Descending Houston Center
Thu 00:31:27 29.2642 -94.0853 270° West 413 764 20.100 -3.148 Descending Houston Center
Thu 00:31:49 29.2650 -94.1167 272° West 413 764 19.200 -3.049 Descending Houston Center
Thu 00:32:28 29.2664 -94.2097 271° West 396 734 17.000 -2.900 Descending Houston Center
Thu 00:32:49 29.2692 -94.2417 276° West 399 739 16.300 -3.100 Descending Houston Center
Thu 00:33:28 29.2828 -94.3322 280° West 390 723 13.900 -2.754 Descending Houston Center
Thu 00:33:50 29.2875 -94.3639 280° West 394 729 13.500 -1.309 Descending Houston Center
Thu 00:34:23 29.2956 -94.4383 277° West 354 655 12.700 -1.475 Descending Houston Center
Thu 00:34:51 29.3017 -94.4736 281° West 357 661 12.000 -1.970 Descending Houston Center
Thu 00:35:30 29.3136 -94.5583 279° West 330 612 10.500 -2.000 Descending Houston Center
Thu 00:35:51 29.3172 -94.5775 282° West 334 618 10.000 -393 Descending Houston Center
Thu 00:36:31 29.3297 -94.6572 280° West 298 552 10.100  Climbing Houston Center
Thu 00:36:52 29.3322 -94.6739 280° West 312 578 10.000 -1.000 Descending Houston Center
Thu 00:37:31 29.3447 -94.7486 281° West 288 533 9.100 -1.300 Descending Houston Center
Thu 00:37:52 29.3467 -94.7639 278° West 292 541 8.700 -1.522 Descending Houston Center
Thu 00:38:38 29.3592 -94.8525 279° West 292 541 7.400 -1.574 Descending Houston Center
Thu 00:38:53 29.3608 -94.8553 305° West 290 538 7.100 -1.279 Descending Houston Center
Thu 00:39:39 29.3719 -94.9444 278° West 282 523 6.100 -1.082 Descending Houston Center
Thu 00:39:54 29.3725 -94.9447 336° Northwest 284 526 6.000  Descending Houston Center
Thu 00:40:40 29.3833 -95.0197 279° West 228 422 6.100 56 Climbing Houston Center
Thu 00:41:41 29.3944 -95.0928 280° West 229 425 6.100  Level Houston Center
Thu 00:42:47 29.4058 -95.1681 280° West 227 420 6.100  Level Houston Center
Thu 00:43:42 29.4164 -95.2364 280° West 232 430 6.100 -436 Level Houston Center
Thu 00:44:37 29.4286 -95.3019 282° West 229 425 5.300 -892 Descending Houston Center
Thu 00:44:56 29.4283 -95.3117 268° West 231 428 5.000 -197 Descending Houston Center
Thu 00:45:38 29.4247 -95.3722 266° West 221 409 5.100  Climbing Houston Center
Thu 00:45:57 29.4214 -95.3967 261° West 225 417 5.000 -197 Descending Houston Center
Thu 00:46:39 29.4164 -95.4428 263° West 218 404 4.900 -393 Descending Houston Center
Thu 00:46:58 29.4244 -95.4625 295° West 219 406 4.600 -889 Descending Houston Center
Thu 00:47:33 29.4608 -95.4686 352° North 224 415 4.100 -1.000 Descending Houston Center
Thu 00:47:58 29.4822 -95.4572 25° Northeast 220 407 3.600 -689 Descending Houston Center
Thu 00:48:34 29.5058 -95.4319 43° Northeast 189 349 3.400 -590 Descending Houston Center
Thu 00:48:59 29.5208 -95.4161 43° Northeast 198 367 3.000 -590 Descending Houston Center
Thu 00:49:35 29.5419 -95.3917 45° Northeast 165 306 2.800 -600 Descending Houston Center
Thu 00:49:59 29.5544 -95.3781 43° Northeast 182 336 2.400 -833 Descending Houston Center
Thu 00:50:47 29.5803 -95.3511 42° Northeast 158 293 1.800 -716 Descending Houston Center
Thu 00:51:48 29.6031 -95.3242 46° Northeast 113 209 1.100 -639 Descending Houston Center
Thu 00:52:49 29.6258 -95.3000 43° Northeast 111 206 500 -451 Descending Houston Center
Thu 00:54:01 29.6544 -95.2706 42° Northeast 119 220 100 -333 Descending Houston Center

Login

Don't have an account? Register now (free) for customized features, flight alerts, and more!